Rock Bridge, Tennessee
Current Conditions -  °F | °C
As of 1:53 PM on Sunday 25 Jan 2015 (Local Time) from KBWG Reporting Station
Light Rain Light Rain  
Wind Chill: 45°   Ceiling: 5500
Heat Index: 48°   Visibility: 10mi
Dew Point: 37°   Wind: 7mph
Humidity: 66%   Direction: 180°S
Pressure: 29.62"   Gusts: NA
Location:  36.5084°N, 86.3071°W
Report Text: KBWG 251953Z AUTO 18006KT 10SM -RA BKN055 BKN065 OVC080 09/03 A2962 RMK AO2 RAB18 SLP030 P0000 T00890028
Loading
Personal Weather Stations






























Interactive Weather Map New forecast layout! Learn more

10-Day Weather Forecast

Advertisements
Track Severe Weather on mobile